Time;durP1;ratioP1;P1;durP2;ratioP2;P2;SDS_P1;SDS_P2;PMS_P1;PMS_P2;Temp;Humidity;BMP_temperature;BMP_pressure;BME280_temperature;BME280_humidity;BME280_pressure;Samples;Min_cycle;Max_cycle;Signal;HPM_P1;HPM_P2
2022/08/13 00:02:15;;;;;;;70.37;4.37;;;23.90;1.00;;;;;;5089306;28;20515;-82
2022/08/13 00:05:01;;;;;;;67.27;4.13;;;24.00;1.00;;;;;;5089601;28;20384;-83
2022/08/13 00:07:28;;;;;;;66.70;4.30;;;24.00;1.00;;;;;;5090118;28;20428;-83
2022/08/13 00:09:59;;;;;;;66.73;4.30;;;24.00;1.00;;;;;;5088863;28;20431;-83
2022/08/13 00:15:47;;;;;;;69.50;4.23;;;24.00;1.00;;;;;;5088532;28;20441;-83
2022/08/13 00:18:17;;;;;;;68.97;4.60;;;24.00;1.00;;;;;;5089079;28;20443;-83
2022/08/13 00:20:53;;;;;;;66.23;3.80;;;24.00;1.00;;;;;;5088364;28;20476;-83
2022/08/13 00:23:21;;;;;;;66.77;4.57;;;24.00;1.00;;;;;;5055365;28;20424;-83
2022/08/13 00:25:50;;;;;;;66.53;4.60;;;24.00;1.00;;;;;;5090396;28;20991;-83
2022/08/13 00:28:18;;;;;;;67.77;5.33;;;23.90;1.00;;;;;;5090584;28;20379;-83
2022/08/13 00:30:46;;;;;;;67.07;5.00;;;23.90;1.00;;;;;;5089905;28;20425;-83
2022/08/13 00:33:17;;;;;;;67.37;5.40;;;23.80;1.00;;;;;;5072883;28;20487;-84
2022/08/13 00:35:47;;;;;;;68.80;5.80;;;23.80;1.00;;;;;;5090000;28;20391;-83
2022/08/13 00:38:18;;;;;;;68.33;5.03;;;23.80;1.00;;;;;;5069592;28;20882;-83
2022/08/13 00:40:52;;;;;;;68.77;5.30;;;23.80;1.00;;;;;;5088554;28;20387;-84
2022/08/13 00:43:19;;;;;;;67.30;5.40;;;23.80;1.00;;;;;;5088672;28;20380;-83
2022/08/13 00:45:45;;;;;;;67.37;5.73;;;23.70;1.00;;;;;;5071767;28;20476;-84
2022/08/13 00:50:58;;;;;;;68.03;5.30;;;23.60;1.00;;;;;;5088312;28;20472;-84
2022/08/13 00:53:24;;;;;;;68.27;5.37;;;23.50;1.00;;;;;;5089741;28;20469;-83
2022/08/13 00:55:58;;;;;;;71.40;5.17;;;23.50;1.00;;;;;;5090433;28;20418;-84
2022/08/13 00:58:26;;;;;;;66.93;4.93;;;23.40;1.00;;;;;;5070167;28;20399;-84
2022/08/13 01:00:56;;;;;;;66.93;5.10;;;23.40;1.00;;;;;;5088028;28;20469;-83
2022/08/13 01:03:23;;;;;;;67.07;4.93;;;23.40;1.00;;;;;;5088072;28;20408;-83
2022/08/13 01:05:49;;;;;;;68.17;4.83;;;23.40;1.00;;;;;;5072265;28;20430;-84
2022/08/13 01:08:18;;;;;;;67.70;4.87;;;23.40;1.00;;;;;;5089534;28;20406;-83
2022/08/13 01:10:49;;;;;;;68.27;5.47;;;23.40;1.00;;;;;;5087616;28;20407;-83
2022/08/13 01:13:18;;;;;;;67.97;4.80;;;23.40;1.00;;;;;;5072062;28;20395;-83
2022/08/13 01:15:45;;;;;;;68.53;5.40;;;23.30;1.00;;;;;;5088488;28;20917;-84
2022/08/13 01:18:13;;;;;;;67.37;4.83;;;23.30;1.00;;;;;;5070080;28;20422;-83
2022/08/13 01:21:00;;;;;;;68.10;4.70;;;23.20;1.00;;;;;;5069883;28;20476;-83
2022/08/13 01:23:28;;;;;;;69.83;4.80;;;23.10;1.00;;;;;;5087516;28;20393;-83
2022/08/13 01:25:55;;;;;;;67.10;4.60;;;23.10;1.00;;;;;;5087919;28;20445;-84
2022/08/13 01:28:27;;;;;;;67.57;5.43;;;23.10;1.00;;;;;;5087891;28;20382;-83
2022/08/13 01:30:59;;;;;;;67.30;3.73;;;23.10;1.00;;;;;;5087805;28;20395;-83
2022/08/13 01:33:25;;;;;;;68.40;4.20;;;23.20;1.00;;;;;;5088030;28;20402;-83
2022/08/13 01:35:53;;;;;;;70.40;4.73;;;23.10;1.00;;;;;;5089185;28;20425;-84
2022/08/13 01:38:24;;;;;;;69.13;4.30;;;23.10;1.00;;;;;;5089323;28;20463;-83
2022/08/13 01:40:50;;;;;;;70.70;4.43;;;23.10;1.00;;;;;;5087853;28;20474;-83
2022/08/13 01:43:17;;;;;;;68.87;4.43;;;23.10;1.00;;;;;;5089248;28;20406;-84
2022/08/13 01:45:44;;;;;;;68.40;4.37;;;23.10;1.00;;;;;;5088843;28;20191;-83
2022/08/13 01:50:55;;;;;;;67.90;4.10;;;23.00;1.00;;;;;;5087179;28;20412;-83
2022/08/13 01:53:21;;;;;;;67.27;4.20;;;23.00;1.00;;;;;;5090253;28;20398;-83
2022/08/13 01:55:52;;;;;;;71.00;4.13;;;23.00;1.00;;;;;;5071710;28;20453;-84
2022/08/13 01:58:25;;;;;;;67.67;4.40;;;23.00;1.00;;;;;;5089102;28;20387;-83
2022/08/13 02:00:57;;;;;;;67.97;4.43;;;22.90;1.00;;;;;;5087478;28;20445;-84
2022/08/13 02:03:24;;;;;;;66.70;3.70;;;22.80;1.00;;;;;;5089166;28;20424;-83
2022/08/13 02:05:51;;;;;;;67.03;4.40;;;22.80;1.00;;;;;;5088368;28;20416;-84
2022/08/13 02:08:23;;;;;;;67.60;4.50;;;22.70;1.00;;;;;;5087389;28;20402;-83
2022/08/13 02:10:52;;;;;;;71.30;4.50;;;22.70;1.00;;;;;;5089076;28;20757;-83
2022/08/13 02:13:27;;;;;;;68.53;4.30;;;22.70;1.00;;;;;;5091634;28;20426;-83
2022/08/13 02:15:53;;;;;;;66.40;4.00;;;22.50;1.00;;;;;;5091144;28;20409;-84
2022/08/13 02:18:21;;;;;;;66.30;4.03;;;22.50;1.00;;;;;;5090727;28;20410;-84
2022/08/13 02:20:58;;;;;;;66.60;4.67;;;22.40;1.00;;;;;;5092553;28;20448;-83
2022/08/13 02:23:31;;;;;;;69.40;4.73;;;22.40;1.00;;;;;;5072925;28;20406;-83
2022/08/13 02:25:59;;;;;;;66.40;3.90;;;22.30;1.00;;;;;;5090634;28;20441;-84
2022/08/13 02:28:25;;;;;;;68.73;4.80;;;22.30;1.00;;;;;;5073037;28;20403;-83
2022/08/13 02:30:56;;;;;;;68.07;4.10;;;22.20;1.00;;;;;;5092596;28;20434;-83
2022/08/13 02:33:23;;;;;;;67.57;4.10;;;22.00;1.00;;;;;;5092157;28;20387;-83
2022/08/13 02:35:48;;;;;;;66.30;4.10;;;21.90;1.00;;;;;;5092093;28;20457;-84
2022/08/13 02:38:16;;;;;;;66.87;4.40;;;21.80;1.00;;;;;;5074422;28;20453;-83
2022/08/13 02:43:28;;;;;;;67.20;4.00;;;21.70;1.00;;;;;;5076162;28;20390;-83
2022/08/13 02:45:55;;;;;;;66.70;4.30;;;21.80;1.00;;;;;;5072943;28;20426;-84
2022/08/13 02:48:23;;;;;;;71.70;4.30;;;21.90;1.00;;;;;;5090184;28;20482;-83
2022/08/13 02:50:50;;;;;;;66.90;4.23;;;21.90;1.00;;;;;;5090374;28;20466;-83
2022/08/13 02:53:19;;;;;;;66.83;4.30;;;21.90;1.00;;;;;;5091848;28;20426;-84
2022/08/13 02:55:47;;;;;;;67.63;4.57;;;21.90;1.00;;;;;;5091898;28;20403;-83
2022/08/13 02:58:16;;;;;;;68.70;5.00;;;21.90;1.00;;;;;;5072046;28;20485;-83
2022/08/13 03:00:47;;;;;;;66.60;4.00;;;21.90;1.00;;;;;;5090941;28;20421;-83
2022/08/13 03:03:13;;;;;;;67.07;4.37;;;21.90;1.00;;;;;;5090011;28;20399;-83
2022/08/13 03:05:39;;;;;;;70.60;5.20;;;21.90;1.00;;;;;;5090526;28;20471;-83
2022/08/13 03:08:04;;;;;;;67.23;4.50;;;22.00;1.00;;;;;;5072196;28;20680;-83
2022/08/13 03:10:30;;;;;;;67.97;3.83;;;22.00;1.00;;;;;;5089844;28;20183;-84
2022/08/13 03:13:07;;;;;;;68.93;4.10;;;22.00;1.00;;;;;;5089895;28;20168;-83
2022/08/13 03:15:35;;;;;;;66.70;4.50;;;22.00;1.00;;;;;;5089793;28;20144;-84
2022/08/13 03:18:01;;;;;;;67.10;4.40;;;21.70;1.00;;;;;;5090042;28;20414;-84
2022/08/13 03:20:27;;;;;;;66.67;4.60;;;21.80;1.00;;;;;;5089769;28;20399;-83
2022/08/13 03:23:01;;;;;;;67.37;4.53;;;21.90;1.00;;;;;;5089628;28;20271;-83
2022/08/13 03:28:04;;;;;;;68.97;4.70;;;21.80;1.00;;;;;;5695800;22;20480;-84
2022/08/13 03:30:34;;;;;;;68.00;4.47;;;21.90;1.00;;;;;;5077120;28;20406;-84
2022/08/13 03:33:07;;;;;;;72.13;5.47;;;22.10;1.00;;;;;;5077532;28;20391;-83
2022/08/13 03:35:35;;;;;;;70.37;4.40;;;22.00;1.00;;;;;;5077622;28;20390;-83
2022/08/13 03:38:01;;;;;;;66.30;4.73;;;22.00;1.00;;;;;;5077211;28;20394;-84
2022/08/13 03:41:00;;;;;;;67.47;5.27;;;22.00;1.00;;;;;;5076901;28;20394;-83
2022/08/13 03:43:13;;;;;;;68.40;5.00;;;22.00;1.00;;;;;;5076541;28;20406;-84
2022/08/13 03:45:40;;;;;;;66.60;4.90;;;22.00;1.00;;;;;;5059019;28;20444;-83
2022/08/13 03:48:06;;;;;;;67.60;5.67;;;22.00;1.00;;;;;;5077169;28;20772;-84
2022/08/13 03:50:32;;;;;;;67.73;4.53;;;22.00;1.00;;;;;;5059273;28;20762;-84
2022/08/13 03:53:03;;;;;;;69.17;5.80;;;21.90;1.00;;;;;;5077365;28;20459;-84
2022/08/13 03:55:30;;;;;;;65.47;5.10;;;21.80;1.00;;;;;;5076868;28;20921;-84
2022/08/13 03:57:57;;;;;;;68.17;5.00;;;21.80;1.00;;;;;;5077134;28;20406;-84
2022/08/13 04:00:28;;;;;;;71.57;5.10;;;21.80;1.00;;;;;;5076351;28;20463;-83
2022/08/13 04:02:54;;;;;;;67.20;5.10;;;21.70;1.00;;;;;;5076128;28;20427;-84
2022/08/13 04:05:20;;;;;;;69.63;5.53;;;21.60;1.00;;;;;;5058574;28;20426;-84
2022/08/13 04:07:49;;;;;;;67.17;4.50;;;21.60;1.00;;;;;;5076145;28;20422;-84
2022/08/13 04:10:15;;;;;;;68.03;4.90;;;21.50;1.00;;;;;;5058275;28;20577;-84
2022/08/13 04:12:40;;;;;;;71.67;4.70;;;21.50;1.00;;;;;;5057960;28;20468;-84
2022/08/13 04:15:07;;;;;;;66.67;4.53;;;21.50;1.00;;;;;;5076625;28;20455;-84
2022/08/13 04:20:09;;;;;;;68.70;4.33;;;21.40;1.00;;;;;;5297897;22;20492;-83
2022/08/13 04:22:39;;;;;;;68.40;4.30;;;21.40;1.00;;;;;;5076291;28;20515;-84
2022/08/13 04:25:09;;;;;;;68.57;5.10;;;21.30;1.00;;;;;;5059148;28;20406;-84
2022/08/13 04:27:45;;;;;;;70.17;4.33;;;21.20;1.00;;;;;;5076443;28;20426;-83
2022/08/13 04:30:15;;;;;;;67.40;4.77;;;21.20;1.00;;;;;;5056877;28;20422;-83
2022/08/13 04:32:42;;;;;;;66.47;5.20;;;21.20;1.00;;;;;;5057698;28;20414;-84
2022/08/13 04:35:09;;;;;;;67.07;4.20;;;21.20;1.00;;;;;;5074840;28;20403;-83
2022/08/13 04:37:34;;;;;;;67.77;4.63;;;21.10;1.00;;;;;;5057823;28;20433;-84
2022/08/13 04:40:00;;;;;;;69.40;4.97;;;21.10;1.00;;;;;;5057698;28;20429;-84
2022/08/13 04:42:26;;;;;;;67.40;5.00;;;21.10;1.00;;;;;;5075639;28;20266;-84
2022/08/13 04:44:52;;;;;;;68.20;4.93;;;21.10;1.00;;;;;;5075680;28;20164;-84
2022/08/13 04:47:18;;;;;;;67.30;5.13;;;21.10;1.00;;;;;;5075207;28;20207;-83
2022/08/13 04:49:48;;;;;;;69.13;4.73;;;21.00;1.00;;;;;;5075952;28;20485;-83
2022/08/13 04:52:13;;;;;;;73.00;5.33;;;21.00;1.00;;;;;;5057540;28;20495;-84
2022/08/13 04:54:39;;;;;;;66.50;5.00;;;20.90;1.00;;;;;;5057778;28;20414;-84
2022/08/13 04:57:05;;;;;;;67.80;5.63;;;21.00;1.00;;;;;;5057550;28;20192;-84
2022/08/13 04:59:38;;;;;;;67.30;5.80;;;20.90;1.00;;;;;;5057787;28;20176;-84
2022/08/13 05:02:03;;;;;;;71.40;5.27;;;20.90;1.00;;;;;;5057287;28;20201;-84
2022/08/13 05:04:29;;;;;;;69.30;6.10;;;20.90;1.00;;;;;;5075387;28;20485;-84
2022/08/13 05:06:55;;;;;;;67.60;6.20;;;20.90;1.00;;;;;;5075144;28;20187;-84
2022/08/13 05:09:21;;;;;;;68.50;6.13;;;21.00;1.00;;;;;;5075421;28;20170;-84
2022/08/13 05:11:48;;;;;;;70.23;7.37;;;21.00;1.00;;;;;;5075823;28;20164;-84
2022/08/13 05:14:14;;;;;;;67.57;6.23;;;20.90;1.00;;;;;;5075845;28;20194;-84
2022/08/13 05:16:39;;;;;;;70.80;7.07;;;21.00;1.00;;;;;;5058102;28;20426;-84
2022/08/13 05:19:05;;;;;;;68.10;8.57;;;21.00;1.00;;;;;;5076051;28;20171;-83
2022/08/13 05:21:32;;;;;;;71.73;8.37;;;21.00;1.00;;;;;;5075721;28;20647;-83
2022/08/13 05:23:58;;;;;;;72.43;10.40;;;21.00;1.00;;;;;;5057966;28;20175;-83
2022/08/13 05:26:28;;;;;;;68.90;9.60;;;21.00;1.00;;;;;;5075747;28;20765;-83
2022/08/13 05:29:04;;;;;;;68.90;9.10;;;21.10;1.00;;;;;;5057973;28;20168;-83
2022/08/13 05:31:31;;;;;;;68.97;9.90;;;21.10;1.00;;;;;;5058772;28;20433;-83
2022/08/13 05:33:57;;;;;;;67.40;8.20;;;21.10;1.00;;;;;;5075527;28;20409;-83
2022/08/13 05:36:28;;;;;;;67.50;8.23;;;21.10;1.00;;;;;;5057107;28;20430;-83
2022/08/13 05:38:58;;;;;;;72.47;8.40;;;21.10;1.00;;;;;;5075516;28;20172;-83
2022/08/13 05:41:25;;;;;;;71.33;8.60;;;21.10;1.00;;;;;;5075006;28;20864;-84
2022/08/13 05:43:52;;;;;;;72.80;8.33;;;21.20;1.00;;;;;;5075521;28;20398;-84
2022/08/13 05:46:24;;;;;;;71.50;7.80;;;21.20;1.00;;;;;;5076154;28;20417;-83
2022/08/13 05:48:58;;;;;;;67.77;6.90;;;21.30;1.00;;;;;;5078644;28;20406;-84
2022/08/13 05:51:28;;;;;;;69.20;7.83;;;21.30;1.00;;;;;;5060993;28;20408;-84
2022/08/13 05:53:59;;;;;;;68.00;7.20;;;21.30;1.00;;;;;;5080361;28;20473;-84
2022/08/13 05:56:26;;;;;;;67.50;6.60;;;21.40;1.00;;;;;;5062424;28;20449;-84
2022/08/13 05:58:52;;;;;;;69.00;8.23;;;21.40;1.00;;;;;;5078985;28;20398;-84
2022/08/13 06:04:08;;;;;;;70.00;8.03;;;21.20;1.00;;;;;;5078483;28;20901;-83
2022/08/13 06:06:34;;;;;;;68.13;7.67;;;21.20;1.00;;;;;;5077920;28;20410;-84
2022/08/13 06:09:00;;;;;;;69.20;8.47;;;21.20;1.00;;;;;;5076977;28;20916;-84
2022/08/13 06:11:30;;;;;;;68.77;7.93;;;21.30;1.00;;;;;;5077219;28;20173;-84
2022/08/13 06:13:56;;;;;;;69.50;9.33;;;21.20;1.00;;;;;;5059793;28;20187;-84
2022/08/13 06:16:27;;;;;;;68.67;8.23;;;21.20;1.00;;;;;;5077287;28;20492;-84
2022/08/13 06:18:54;;;;;;;70.43;7.30;;;21.30;1.00;;;;;;5077335;28;20387;-84
2022/08/13 06:21:20;;;;;;;70.50;7.80;;;21.40;1.00;;;;;;5059216;28;20513;-84
2022/08/13 06:23:46;;;;;;;68.10;8.20;;;21.50;1.00;;;;;;5077388;28;20394;-84
2022/08/13 06:26:15;;;;;;;71.50;6.80;;;21.50;1.00;;;;;;5077347;28;20204;-84
2022/08/13 06:28:42;;;;;;;68.87;6.60;;;21.50;1.00;;;;;;5058977;28;20411;-84
2022/08/13 06:31:13;;;;;;;68.07;6.00;;;21.50;1.00;;;;;;5059906;28;20468;-84
2022/08/13 06:33:40;;;;;;;66.97;5.20;;;21.60;1.00;;;;;;5059179;28;20406;-84
2022/08/13 06:36:09;;;;;;;69.50;5.23;;;21.60;1.00;;;;;;5076703;28;20422;-84
2022/08/13 06:38:48;;;;;;;70.03;6.73;;;21.60;1.00;;;;;;5077203;28;20438;-84
2022/08/13 06:41:15;;;;;;;68.83;5.40;;;21.60;1.00;;;;;;5076764;28;20442;-84
2022/08/13 06:43:43;;;;;;;68.10;5.00;;;21.70;1.00;;;;;;5076938;28;20414;-84
2022/08/13 06:46:11;;;;;;;70.27;4.53;;;21.80;1.00;;;;;;5077712;28;20433;-84
2022/08/13 06:48:39;;;;;;;69.47;5.07;;;21.90;1.00;;;;;;5060268;28;20480;-84
2022/08/13 06:51:06;;;;;;;67.10;4.17;;;22.00;1.00;;;;;;5059014;28;20913;-84
2022/08/13 06:53:35;;;;;;;71.13;4.77;;;22.10;1.00;;;;;;5077281;28;20940;-84
2022/08/13 06:56:06;;;;;;;66.80;4.20;;;22.10;1.00;;;;;;5059325;28;20428;-84
2022/08/13 06:58:34;;;;;;;68.27;3.90;;;22.20;1.00;;;;;;5077351;28;20386;-84
2022/08/13 07:00:59;;;;;;;65.60;3.87;;;22.20;1.00;;;;;;5060497;28;20493;-84
2022/08/13 07:03:28;;;;;;;66.17;4.00;;;22.20;1.00;;;;;;5077611;28;20395;-84
2022/08/13 07:05:57;;;;;;;79.10;3.50;;;22.30;1.00;;;;;;5077113;28;20184;-84
2022/08/13 07:08:24;;;;;;;65.30;3.57;;;22.30;1.00;;;;;;5058833;28;20921;-84
2022/08/13 07:11:21;;;;;;;65.17;3.53;;;22.40;1.00;;;;;;5058634;28;20490;-84
2022/08/13 07:13:39;;;;;;;65.90;3.40;;;22.40;1.00;;;;;;5076602;28;20432;-84
2022/08/13 07:16:10;;;;;;;68.87;3.73;;;22.50;1.00;;;;;;5058847;28;20427;-84
2022/08/13 07:18:36;;;;;;;64.60;3.00;;;22.50;1.00;;;;;;5076840;28;20478;-84
2022/08/13 07:21:09;;;;;;;67.77;3.47;;;22.60;1.00;;;;;;5076450;28;20984;-84
2022/08/13 07:23:36;;;;;;;65.93;3.30;;;22.70;1.00;;;;;;5060255;28;20932;-84
2022/08/13 07:26:03;;;;;;;69.43;3.20;;;22.70;1.00;;;;;;5060072;28;20479;-84
2022/08/13 07:28:31;;;;;;;65.77;3.00;;;22.70;1.00;;;;;;5083020;28;20394;-85
2022/08/13 07:30:57;;;;;;;68.60;3.03;;;22.80;1.00;;;;;;5079693;28;20395;-84
2022/08/13 07:33:25;;;;;;;65.80;3.20;;;22.90;1.00;;;;;;5075873;28;20430;-84
2022/08/13 07:35:50;;;;;;;67.70;3.37;;;22.90;1.00;;;;;;5075276;28;20460;-84
2022/08/13 07:38:16;;;;;;;65.47;3.17;;;22.90;1.00;;;;;;5057943;28;20983;-84
2022/08/13 07:40:50;;;;;;;65.87;2.97;;;23.10;1.00;;;;;;5075536;28;20504;-84
2022/08/13 07:43:22;;;;;;;66.83;3.70;;;23.00;1.00;;;;;;5057421;28;20187;-84
2022/08/13 07:46:07;;;;;;;65.57;3.13;;;23.00;1.00;;;;;;5074952;28;20430;-84
2022/08/13 07:48:35;;;;;;;65.80;3.13;;;23.00;1.00;;;;;;5057704;28;20395;-84
2022/08/13 07:51:02;;;;;;;65.77;4.23;;;23.10;1.00;;;;;;5057641;28;20444;-84
2022/08/13 07:53:28;;;;;;;65.40;3.43;;;23.30;1.00;;;;;;5075781;28;20391;-83
2022/08/13 07:55:55;;;;;;;65.10;3.40;;;23.30;1.00;;;;;;5077345;28;20421;-84
2022/08/13 07:58:28;;;;;;;65.63;3.53;;;23.40;1.00;;;;;;5078411;28;20391;-83
2022/08/13 08:00:57;;;;;;;66.37;4.10;;;23.40;1.00;;;;;;5058986;28;20770;-84
2022/08/13 08:03:41;;;;;;;65.70;3.47;;;23.40;1.00;;;;;;5057523;28;20437;-83
2022/08/13 08:06:10;;;;;;;66.10;3.90;;;23.50;1.00;;;;;;5075373;28;20415;-85
2022/08/13 08:08:40;;;;;;;66.27;4.37;;;23.60;1.00;;;;;;5074027;28;20750;-84
2022/08/13 08:11:08;;;;;;;66.37;3.03;;;23.60;1.00;;;;;;5057008;28;20418;-84
2022/08/13 08:13:34;;;;;;;67.00;3.30;;;23.70;1.00;;;;;;5063053;28;20415;-84
2022/08/13 08:16:02;;;;;;;65.90;3.27;;;23.90;1.00;;;;;;5064107;28;20434;-84
2022/08/13 08:18:28;;;;;;;75.63;4.13;;;24.00;1.00;;;;;;5063077;28;20425;-84
2022/08/13 08:21:07;;;;;;;65.97;4.37;;;24.00;1.00;;;;;;5064528;28;20469;-85
2022/08/13 08:23:35;;;;;;;71.53;4.03;;;24.00;1.00;;;;;;5083198;28;20391;-84
2022/08/13 08:26:06;;;;;;;66.97;4.23;;;24.00;1.00;;;;;;5063114;28;20506;-84
2022/08/13 08:28:35;;;;;;;69.13;4.20;;;24.10;1.00;;;;;;5081223;28;20385;-84
2022/08/13 08:31:06;;;;;;;67.80;4.60;;;24.20;1.00;;;;;;5080275;28;20402;-84
2022/08/13 08:33:34;;;;;;;65.90;4.60;;;24.30;1.00;;;;;;5062764;28;20430;-84
2022/08/13 08:36:00;;;;;;;70.83;5.57;;;24.30;1.00;;;;;;5060609;28;20439;-84
2022/08/13 08:43:59;;;;;;;66.97;4.83;;;24.60;1.00;;;;;;5080998;28;20888;-84
2022/08/13 08:46:24;;;;;;;67.43;4.93;;;24.60;1.00;;;;;;5063654;28;20444;-85
2022/08/13 08:48:54;;;;;;;66.30;5.47;;;24.70;1.00;;;;;;5062691;28;20414;-85
2022/08/13 08:51:21;;;;;;;73.40;5.37;;;24.70;1.00;;;;;;5062547;28;20168;-85
2022/08/13 08:53:47;;;;;;;67.00;5.30;;;25.00;1.00;;;;;;5079302;28;20427;-85
2022/08/13 08:56:16;;;;;;;65.47;4.77;;;25.10;1.00;;;;;;5079608;28;20452;-85
2022/08/13 08:58:42;;;;;;;67.10;5.40;;;25.10;1.00;;;;;;5082586;28;20411;-85
2022/08/13 09:01:10;;;;;;;66.70;4.57;;;25.20;1.00;;;;;;5079655;28;20445;-83
2022/08/13 09:03:40;;;;;;;68.30;4.20;;;25.40;1.00;;;;;;5058537;28;20432;-84
2022/08/13 09:06:08;;;;;;;65.73;4.37;;;25.50;1.00;;;;;;5081954;28;20853;-84
2022/08/13 09:08:36;;;;;;;71.30;3.90;;;25.60;1.00;;;;;;5082750;28;20402;-84
2022/08/13 09:11:03;;;;;;;66.60;3.80;;;25.80;1.00;;;;;;5081991;28;20409;-83
2022/08/13 09:13:29;;;;;;;65.87;2.80;;;25.80;1.00;;;;;;5062524;28;20445;-85
2022/08/13 09:15:57;;;;;;;66.30;2.80;;;25.90;1.00;;;;;;5064603;28;20990;-84
2022/08/13 09:18:24;;;;;;;65.67;2.97;;;26.00;1.00;;;;;;5078505;28;20406;-84
2022/08/13 09:20:50;;;;;;;67.23;3.40;;;26.10;1.00;;;;;;5080780;28;20476;-85
2022/08/13 09:23:16;;;;;;;66.60;2.33;;;26.20;1.00;;;;;;5084887;28;21037;-85
2022/08/13 09:25:52;;;;;;;66.67;2.80;;;26.30;1.00;;;;;;5131217;22;20428;31
2022/08/13 09:28:23;;;;;;;66.20;2.90;;;26.50;1.00;;;;;;5029558;28;20435;-83
2022/08/13 09:30:51;;;;;;;65.60;2.67;;;26.80;1.00;;;;;;5031097;28;20388;-83
2022/08/13 09:33:19;;;;;;;67.57;3.30;;;26.80;1.00;;;;;;5030708;28;20373;-83
2022/08/13 09:35:49;;;;;;;65.37;2.63;;;26.80;1.00;;;;;;5033351;28;20397;-83
2022/08/13 09:38:15;;;;;;;64.77;2.33;;;26.80;1.00;;;;;;5050983;28;20396;-83
2022/08/13 09:41:23;;;;;;;65.87;2.63;;;26.90;1.00;;;;;;5033241;28;20400;-83
2022/08/13 09:43:49;;;;;;;66.00;2.50;;;27.00;1.00;;;;;;5049656;28;20415;-83
2022/08/13 09:46:16;;;;;;;66.23;2.70;;;27.10;1.00;;;;;;5051736;28;20416;-83
2022/08/13 09:48:42;;;;;;;68.27;2.67;;;27.10;1.00;;;;;;5050678;28;20471;-83
2022/08/13 09:51:13;;;;;;;66.07;2.90;;;27.20;1.00;;;;;;5049955;28;20407;-83
2022/08/13 09:53:46;;;;;;;66.50;3.27;;;27.40;1.00;;;;;;5050055;28;20145;-83
2022/08/13 09:56:17;;;;;;;64.60;2.50;;;27.40;1.00;;;;;;5049861;28;20428;-82
2022/08/13 09:58:50;;;;;;;66.87;2.60;;;27.50;1.00;;;;;;5049071;28;20435;-83
2022/08/13 10:01:17;;;;;;;66.27;2.50;;;27.50;1.00;;;;;;5048458;28;20511;-82
2022/08/13 10:03:45;;;;;;;67.40;2.80;;;27.60;1.00;;;;;;5031498;28;20412;-83
2022/08/13 10:06:11;;;;;;;69.47;2.93;;;27.60;1.00;;;;;;5049367;28;20853;-82
2022/08/13 10:08:37;;;;;;;67.47;2.97;;;27.80;1.00;;;;;;5050043;28;20407;-83
2022/08/13 10:11:04;;;;;;;66.93;2.87;;;28.00;1.00;;;;;;5048646;28;20404;-83
2022/08/13 10:13:29;;;;;;;67.70;3.70;;;28.10;1.00;;;;;;5049309;28;20185;-82
2022/08/13 10:15:55;;;;;;;67.70;3.40;;;28.20;1.00;;;;;;5047992;28;20477;-83
2022/08/13 10:18:21;;;;;;;67.20;4.30;;;28.30;1.00;;;;;;5046656;28;20169;-83
2022/08/13 10:20:49;;;;;;;68.37;5.20;;;28.50;1.00;;;;;;5048396;28;20196;-83
2022/08/13 10:23:16;;;;;;;67.97;4.30;;;28.70;1.00;;;;;;5048385;28;20620;-83
2022/08/13 10:25:46;;;;;;;67.53;4.40;;;28.80;1.00;;;;;;5048908;28;20411;-83
2022/08/13 10:28:18;;;;;;;67.87;3.63;;;28.90;1.00;;;;;;5048979;28;20939;-83
2022/08/13 10:30:44;;;;;;;68.47;4.10;;;29.00;1.00;;;;;;5049795;28;20396;-83
2022/08/13 10:33:12;;;;;;;66.90;4.10;;;29.10;1.00;;;;;;5049059;28;20420;-83
2022/08/13 10:35:39;;;;;;;69.30;4.10;;;29.50;1.00;;;;;;5050625;28;20160;-83
2022/08/13 10:38:07;;;;;;;77.23;3.40;;;29.50;1.00;;;;;;5032317;28;20474;-83
2022/08/13 10:40:33;;;;;;;67.27;2.80;;;29.70;1.00;;;;;;5049113;28;20409;-83
2022/08/13 10:42:59;;;;;;;66.63;3.20;;;29.70;1.00;;;;;;5049985;28;20474;-83
2022/08/13 10:45:26;;;;;;;70.47;2.87;;;30.00;1.00;;;;;;5047668;28;20480;-83
2022/08/13 10:47:54;;;;;;;66.87;2.73;;;30.20;1.00;;;;;;5031436;28;20404;-83
2022/08/13 10:50:26;;;;;;;67.10;2.23;;;30.20;1.00;;;;;;5033278;28;20415;-83
2022/08/13 10:52:52;;;;;;;66.20;2.63;;;29.90;1.00;;;;;;5050316;28;20388;-83
2022/08/13 10:55:18;;;;;;;66.77;2.70;;;29.90;1.00;;;;;;5050873;28;20407;-83
2022/08/13 10:57:45;;;;;;;69.17;3.10;;;30.20;1.00;;;;;;5047412;28;20192;-83
2022/08/13 11:00:16;;;;;;;68.87;3.17;;;30.30;1.00;;;;;;5048344;28;20170;-83
2022/08/13 11:02:43;;;;;;;68.17;3.17;;;30.40;1.00;;;;;;5048948;28;20510;-83
2022/08/13 11:05:11;;;;;;;67.43;2.60;;;30.40;1.00;;;;;;5031445;28;20408;-82
2022/08/13 11:07:38;;;;;;;67.03;2.77;;;30.60;1.00;;;;;;5049446;28;20439;-82
2022/08/13 11:10:06;;;;;;;65.97;2.70;;;30.80;1.00;;;;;;5049526;28;20384;-83
2022/08/13 11:12:33;;;;;;;66.97;2.50;;;31.10;1.00;;;;;;5049663;28;20439;-83
2022/08/13 11:15:00;;;;;;;68.70;2.30;;;31.20;1.00;;;;;;5044445;28;20416;-83
2022/08/13 11:17:26;;;;;;;67.40;2.77;;;31.50;1.00;;;;;;5048055;28;20459;-83
2022/08/13 11:19:52;;;;;;;66.27;2.00;;;31.10;1.00;;;;;;5046003;28;20891;-82
2022/08/13 11:22:19;;;;;;;67.43;2.70;;;31.10;1.00;;;;;;5046666;28;20811;-83
2022/08/13 11:24:45;;;;;;;68.00;3.20;;;31.20;1.00;;;;;;5044492;28;20424;-83
2022/08/13 11:27:11;;;;;;;70.00;2.80;;;31.60;1.00;;;;;;5046388;28;20459;-83
2022/08/13 11:29:37;;;;;;;67.50;2.33;;;31.80;1.00;;;;;;5046853;28;20173;-83
2022/08/13 11:32:04;;;;;;;68.30;3.10;;;31.90;1.00;;;;;;5047930;28;20174;-83
2022/08/13 11:34:30;;;;;;;68.90;2.87;;;31.80;1.00;;;;;;5048780;28;20416;-83
2022/08/13 11:36:56;;;;;;;66.67;2.53;;;31.70;1.00;;;;;;5047555;28;20503;-83
2022/08/13 11:39:23;;;;;;;67.27;2.87;;;31.60;1.00;;;;;;5048198;28;20166;-83
2022/08/13 11:41:49;;;;;;;66.77;2.70;;;31.60;1.00;;;;;;5030884;28;20247;-83
2022/08/13 11:44:16;;;;;;;66.77;3.10;;;31.90;1.00;;;;;;5030084;28;20404;-83
2022/08/13 11:46:42;;;;;;;66.30;2.70;;;32.00;1.00;;;;;;5048191;28;20426;-83
2022/08/13 11:49:07;;;;;;;69.57;3.37;;;32.00;1.00;;;;;;5049042;28;20423;-83
2022/08/13 11:51:33;;;;;;;66.37;2.50;;;31.90;1.00;;;;;;5047657;28;20173;-83
2022/08/13 11:53:59;;;;;;;67.17;2.83;;;31.90;1.00;;;;;;5047513;28;20633;-83
2022/08/13 11:56:24;;;;;;;67.70;2.37;;;32.20;1.00;;;;;;5047319;28;20276;-83
2022/08/13 11:58:54;;;;;;;67.13;2.43;;;32.40;1.00;;;;;;5047249;28;20173;-83
2022/08/13 12:01:21;;;;;;;68.20;2.77;;;32.40;1.00;;;;;;5048806;28;20212;-83
2022/08/13 12:03:48;;;;;;;66.80;2.83;;;32.40;1.00;;;;;;5048436;28;20396;-83
2022/08/13 12:06:14;;;;;;;67.17;2.60;;;32.30;1.00;;;;;;5045765;28;20480;-82
2022/08/13 12:08:40;;;;;;;69.93;2.27;;;32.40;1.00;;;;;;5044774;28;20403;-83
2022/08/13 12:11:06;;;;;;;66.67;2.20;;;32.40;1.00;;;;;;5043836;28;20404;-82
2022/08/13 12:13:31;;;;;;;67.70;2.23;;;32.50;1.00;;;;;;5043121;28;20170;-82
2022/08/13 12:15:57;;;;;;;67.07;2.93;;;32.90;1.00;;;;;;5044068;28;20529;-82
2022/08/13 12:18:23;;;;;;;67.90;2.90;;;32.60;1.00;;;;;;5044749;28;20165;-83
2022/08/13 12:20:49;;;;;;;67.07;2.40;;;32.30;1.00;;;;;;5041760;28;20172;-82
2022/08/13 12:23:15;;;;;;;68.63;3.03;;;32.00;1.00;;;;;;5041507;28;20228;-82
2022/08/13 12:25:41;;;;;;;67.53;4.60;;;32.30;1.00;;;;;;5043295;28;20400;-82
2022/08/13 12:28:07;;;;;;;67.50;3.67;;;32.70;1.00;;;;;;5040808;28;20424;-82
2022/08/13 12:30:33;;;;;;;69.03;3.30;;;32.80;1.00;;;;;;5042163;28;20435;-82
2022/08/13 12:32:59;;;;;;;67.10;3.10;;;32.80;1.00;;;;;;5041794;28;20166;-82
2022/08/13 12:35:24;;;;;;;67.80;5.10;;;32.70;1.00;;;;;;5043634;28;20184;-82
2022/08/13 12:37:50;;;;;;;67.20;3.10;;;32.90;1.00;;;;;;5042170;28;20213;-82
2022/08/13 12:40:16;;;;;;;68.13;5.90;;;32.90;1.00;;;;;;5042450;28;20168;-82
2022/08/13 12:42:41;;;;;;;69.13;3.83;;;33.00;1.00;;;;;;5041195;28;20189;-82
2022/08/13 12:45:09;;;;;;;68.97;5.40;;;33.20;1.00;;;;;;5044528;28;20639;-82
2022/08/13 12:47:35;;;;;;;67.47;5.53;;;33.00;1.00;;;;;;5044951;28;20184;-82
2022/08/13 12:50:02;;;;;;;69.00;6.60;;;32.70;1.00;;;;;;5044345;28;20872;-82
2022/08/13 12:52:28;;;;;;;67.67;5.47;;;32.60;1.00;;;;;;5043833;28;20562;-82
2022/08/13 12:54:54;;;;;;;68.80;5.43;;;32.60;1.00;;;;;;5042196;28;20414;-82
2022/08/13 12:57:19;;;;;;;68.07;5.67;;;32.80;1.00;;;;;;5042924;28;20185;-82
2022/08/13 12:59:45;;;;;;;67.77;5.20;;;32.60;1.00;;;;;;5042354;28;20256;-82
2022/08/13 13:02:10;;;;;;;68.70;4.93;;;32.60;1.00;;;;;;5024660;28;20193;-82
2022/08/13 13:04:41;;;;;;;73.47;5.43;;;32.60;1.00;;;;;;5041230;28;20165;-82
2022/08/13 13:07:07;;;;;;;70.90;6.37;;;32.80;1.00;;;;;;5036828;28;20207;-82
2022/08/13 13:09:33;;;;;;;67.17;4.30;;;33.00;1.00;;;;;;5039301;28;20388;-81
2022/08/13 13:11:59;;;;;;;67.67;5.03;;;33.40;1.00;;;;;;5035322;28;20404;-82
2022/08/13 13:14:25;;;;;;;67.67;3.40;;;33.40;1.00;;;;;;5036429;28;20404;-82
2022/08/13 13:16:51;;;;;;;67.70;3.57;;;33.50;1.00;;;;;;5037835;28;20284;-83
2022/08/13 13:19:17;;;;;;;67.70;3.57;;;33.60;1.00;;;;;;5038558;28;20847;-83